createdAt,value
2019-05-16T00:00:22.437Z,9.20
2019-05-16T00:02:50.812Z,8.43
2019-05-16T00:05:19.090Z,7.17
2019-05-16T00:07:48.998Z,5.87
2019-05-16T00:10:18.744Z,5.57
2019-05-16T00:12:48.659Z,7.73
2019-05-16T00:15:18.280Z,9.30
2019-05-16T00:17:48.599Z,7.20
2019-05-16T00:20:19.110Z,7.53
2019-05-16T00:22:48.416Z,8.67
2019-05-16T00:25:17.926Z,9.70
2019-05-16T00:27:47.955Z,9.43
2019-05-16T00:30:18.119Z,10.03
2019-05-16T00:32:48.121Z,21.00
2019-05-16T00:35:18.207Z,10.17
2019-05-16T00:37:48.371Z,10.17
2019-05-16T00:40:18.756Z,10.50
2019-05-16T00:42:49.250Z,11.53
2019-05-16T00:45:18.543Z,11.63
2019-05-16T00:47:48.112Z,11.17
2019-05-16T00:50:18.243Z,10.93
2019-05-16T00:52:48.515Z,13.53
2019-05-16T00:55:17.916Z,12.33
2019-05-16T00:57:48.147Z,13.67
2019-05-16T01:00:20.710Z,14.93
2019-05-16T01:02:48.985Z,13.80
2019-05-16T01:05:19.103Z,13.37
2019-05-16T01:07:48.191Z,12.83
2019-05-16T01:10:18.298Z,13.30
2019-05-16T01:12:48.098Z,15.40
2019-05-16T01:15:18.448Z,15.50
2019-05-16T01:17:48.429Z,14.50
2019-05-16T01:20:19.229Z,17.20
2019-05-16T01:22:48.979Z,13.73
2019-05-16T01:25:19.469Z,18.17
2019-05-16T01:27:47.793Z,15.33
2019-05-16T01:30:18.454Z,15.23
2019-05-16T01:32:46.127Z,14.70
2019-05-16T01:35:15.117Z,16.57
2019-05-16T01:37:43.131Z,18.80
2019-05-16T01:40:11.418Z,20.03
2019-05-16T01:42:39.709Z,21.07
2019-05-16T01:45:08.666Z,25.00
2019-05-16T01:47:39.059Z,24.43
2019-05-16T01:50:08.970Z,28.27
2019-05-16T01:52:38.357Z,25.60
2019-05-16T01:55:08.301Z,24.33
2019-05-16T01:57:39.099Z,21.37
2019-05-16T02:00:08.403Z,19.00
2019-05-16T02:02:38.293Z,19.00
2019-05-16T02:05:08.292Z,17.63
2019-05-16T02:07:38.199Z,18.07
2019-05-16T02:10:08.529Z,16.13
2019-05-16T02:12:38.202Z,19.43
2019-05-16T02:15:07.857Z,18.27
2019-05-16T02:17:38.348Z,18.37
2019-05-16T02:20:08.690Z,18.30
2019-05-16T02:22:39.003Z,20.00
2019-05-16T02:25:08.164Z,19.97
2019-05-16T02:27:38.206Z,20.27
2019-05-16T02:30:06.803Z,17.73
2019-05-16T02:32:35.137Z,19.13
2019-05-16T02:35:03.819Z,20.47
2019-05-16T02:37:34.623Z,19.70
2019-05-16T02:40:01.976Z,23.17
2019-05-16T02:42:31.231Z,19.90
2019-05-16T02:45:02.346Z,21.97
2019-05-16T02:47:31.486Z,18.43
2019-05-16T02:50:01.140Z,19.50
2019-05-16T02:52:31.694Z,17.50
2019-05-16T02:55:00.845Z,21.93
2019-05-16T02:57:31.701Z,22.03
2019-05-16T03:00:01.598Z,22.20
2019-05-16T03:02:31.181Z,19.53
2019-05-16T03:05:00.932Z,19.77
2019-05-16T03:07:41.205Z,20.47
2019-05-16T03:10:01.863Z,24.53
2019-05-16T03:12:31.243Z,27.87
2019-05-16T03:15:02.436Z,25.60
2019-05-16T03:17:33.891Z,22.90
2019-05-16T03:20:02.052Z,21.70
2019-05-16T03:22:31.688Z,19.03
2019-05-16T03:25:01.016Z,23.27
2019-05-16T03:27:30.607Z,23.17
2019-05-16T03:30:01.601Z,25.87
2019-05-16T03:32:34.102Z,22.67
2019-05-16T03:35:04.827Z,23.00
2019-05-16T03:37:30.782Z,22.10
2019-05-16T03:40:00.659Z,21.90
2019-05-16T03:42:31.081Z,22.73
2019-05-16T03:45:02.179Z,27.10
2019-05-16T03:47:31.284Z,23.53
2019-05-16T03:50:00.670Z,22.67
2019-05-16T03:52:31.034Z,21.10
2019-05-16T03:55:01.671Z,22.77
2019-05-16T03:57:30.728Z,25.80
2019-05-16T04:00:00.623Z,20.67
2019-05-16T04:02:30.961Z,26.53
2019-05-16T04:05:02.065Z,27.37
2019-05-16T04:07:31.831Z,27.53
2019-05-16T04:10:02.213Z,27.67
2019-05-16T04:12:30.989Z,26.37
2019-05-16T04:15:01.886Z,27.23
2019-05-16T04:17:31.654Z,23.47
2019-05-16T04:20:02.087Z,25.33
2019-05-16T04:22:31.823Z,29.57
2019-05-16T04:25:01.896Z,33.03
2019-05-16T04:27:30.979Z,31.20
2019-05-16T04:30:01.643Z,27.73
2019-05-16T04:32:31.471Z,26.13
2019-05-16T04:35:02.441Z,24.67
2019-05-16T04:37:31.383Z,26.67
2019-05-16T04:40:01.405Z,27.00
2019-05-16T04:42:31.037Z,29.10
2019-05-16T04:45:01.107Z,32.87
2019-05-16T04:47:31.666Z,29.07
2019-05-16T04:50:01.715Z,28.53
2019-05-16T04:52:30.755Z,29.93
2019-05-16T04:55:00.707Z,25.60
2019-05-16T04:57:31.337Z,25.00
2019-05-16T05:00:02.276Z,27.73
2019-05-16T05:02:30.970Z,19.73
2019-05-16T05:05:01.185Z,24.77
2019-05-16T05:07:31.313Z,22.13
2019-05-16T05:10:00.726Z,24.43
2019-05-16T05:12:31.173Z,19.83
2019-05-16T05:15:01.385Z,26.57
2019-05-16T05:17:30.665Z,24.83
2019-05-16T05:20:01.088Z,21.57
2019-05-16T05:22:30.436Z,23.17
2019-05-16T05:25:00.147Z,23.43
2019-05-16T05:27:30.293Z,24.37
2019-05-16T05:30:00.812Z,23.47
2019-05-16T05:32:30.607Z,27.37
2019-05-16T05:34:59.862Z,23.40
2019-05-16T05:37:29.866Z,29.57
2019-05-16T05:39:59.983Z,36.50
2019-05-16T05:42:30.590Z,35.93
2019-05-16T05:45:00.308Z,31.73
2019-05-16T05:47:30.723Z,25.90
2019-05-16T05:50:00.666Z,20.80
2019-05-16T05:52:30.317Z,22.37
2019-05-16T05:55:00.717Z,24.63
2019-05-16T05:57:30.021Z,21.47
2019-05-16T06:00:00.450Z,21.80
2019-05-16T06:02:30.821Z,24.77
2019-05-16T06:04:59.709Z,25.13
2019-05-16T06:07:30.046Z,22.00
2019-05-16T06:10:00.364Z,25.67
2019-05-16T06:12:30.339Z,21.90
2019-05-16T06:15:07.877Z,22.17
2019-05-16T06:17:30.681Z,26.93
2019-05-16T06:20:00.311Z,21.33
2019-05-16T06:22:29.823Z,25.23
2019-05-16T06:25:00.927Z,23.00
2019-05-16T06:27:30.197Z,24.33
2019-05-16T06:30:00.528Z,26.50
2019-05-16T06:32:30.368Z,25.80
2019-05-16T06:35:00.007Z,22.83
2019-05-16T06:37:30.744Z,17.97
2019-05-16T06:40:00.684Z,23.53
2019-05-16T06:42:29.987Z,23.10
2019-05-16T06:45:00.570Z,24.50
2019-05-16T06:47:30.413Z,20.73
2019-05-16T06:50:00.250Z,21.47
2019-05-16T06:52:30.103Z,22.33
2019-05-16T06:55:00.285Z,18.43
2019-05-16T06:57:30.177Z,17.07
2019-05-16T07:00:00.480Z,28.07
2019-05-16T07:02:33.702Z,30.83
2019-05-16T07:05:00.943Z,20.80
2019-05-16T07:07:30.767Z,333.43
2019-05-16T07:10:04.122Z,264.93
2019-05-16T07:12:33.692Z,254.10
2019-05-16T07:15:01.403Z,23.93
2019-05-16T07:17:30.674Z,22.03
2019-05-16T07:20:00.821Z,39.60
2019-05-16T07:22:31.251Z,26.50
2019-05-16T07:25:00.025Z,24.27
2019-05-16T07:27:27.752Z,20.23
2019-05-16T07:29:58.461Z,19.60
2019-05-16T07:32:26.584Z,18.53
2019-05-16T07:34:55.214Z,22.70
2019-05-16T07:37:23.979Z,19.87
2019-05-16T07:39:51.517Z,19.93
2019-05-16T07:42:20.191Z,22.90
2019-05-16T07:44:50.545Z,18.67
2019-05-16T07:47:20.307Z,21.13
2019-05-16T07:49:50.134Z,21.37
2019-05-16T07:52:20.861Z,30.97
2019-05-16T07:54:50.727Z,29.70
2019-05-16T07:57:22.305Z,19.83
2019-05-16T07:59:50.737Z,39.10
2019-05-16T08:02:20.935Z,22.37
2019-05-16T08:04:50.167Z,19.57
2019-05-16T08:07:20.098Z,32.47
2019-05-16T08:09:50.476Z,27.43
2019-05-16T08:12:25.497Z,37.07
2019-05-16T08:14:50.144Z,16.27
2019-05-16T08:17:21.452Z,20.53
2019-05-16T08:19:50.641Z,13.57
2019-05-16T08:22:18.624Z,14.10
2019-05-16T08:24:47.224Z,15.40
2019-05-16T08:27:15.512Z,14.93
2019-05-16T08:29:44.188Z,15.17
2019-05-16T08:32:12.394Z,14.50
2019-05-16T08:34:41.039Z,15.43
2019-05-16T08:39:41.303Z,21.03
2019-05-16T08:42:13.143Z,57.10
2019-05-16T08:44:41.788Z,57.20
2019-05-16T08:47:11.938Z,19.10
2019-05-16T08:49:42.203Z,17.60
2019-05-16T08:52:11.623Z,49.60
2019-05-16T08:54:43.836Z,93.30
2019-05-16T08:57:26.175Z,16.73
2019-05-16T08:59:41.258Z,12.27
2019-05-16T09:02:12.467Z,14.97
2019-05-16T09:04:44.503Z,13.93
2019-05-16T09:07:12.657Z,12.90
2019-05-16T09:10:11.000Z,22.13
2019-05-16T09:10:33.709Z,17.43
2019-05-16T09:12:11.078Z,14.73
2019-05-16T09:14:39.359Z,18.57
2019-05-16T09:17:08.100Z,15.23
2019-05-16T09:19:37.106Z,17.00
2019-05-16T09:22:07.320Z,20.87
2019-05-16T09:24:37.765Z,20.13
2019-05-16T09:27:17.168Z,28.53
2019-05-16T09:29:36.641Z,24.20
2019-05-16T09:32:15.686Z,21.62
2019-05-16T09:34:37.950Z,24.27
2019-05-16T09:37:08.240Z,19.67
2019-05-16T09:39:37.010Z,24.00
2019-05-16T09:42:08.019Z,25.37
2019-05-16T09:44:36.973Z,25.30
2019-05-16T09:47:07.574Z,23.37
2019-05-16T09:49:37.096Z,21.73
2019-05-16T09:52:07.450Z,22.37
2019-05-16T09:54:37.897Z,20.40
2019-05-16T09:57:06.594Z,28.77
2019-05-16T09:59:36.938Z,21.00
2019-05-16T10:02:07.099Z,21.53
2019-05-16T10:04:36.781Z,21.33
2019-05-16T10:07:06.718Z,21.20
2019-05-16T10:09:44.042Z,25.23
2019-05-16T10:12:14.695Z,20.37
2019-05-16T10:14:37.641Z,23.47
2019-05-16T10:17:07.982Z,21.93
2019-05-16T10:19:36.768Z,18.33
2019-05-16T10:22:07.092Z,20.10
2019-05-16T10:24:37.462Z,19.57
2019-05-16T10:27:06.581Z,19.80
2019-05-16T10:29:37.563Z,21.97
2019-05-16T10:32:04.623Z,20.07
2019-05-16T10:34:32.994Z,22.40
2019-05-16T10:37:00.903Z,19.07
2019-05-16T10:39:29.152Z,20.00
2019-05-16T10:41:57.354Z,18.10
2019-05-16T10:44:28.141Z,20.43
2019-05-16T10:46:56.374Z,19.43
2019-05-16T10:49:34.369Z,18.50
2019-05-16T10:51:54.783Z,20.40
2019-05-16T10:54:22.769Z,19.03
2019-05-16T10:56:51.267Z,19.93
2019-05-16T10:59:56.606Z,20.97
2019-05-16T11:01:50.043Z,18.87
2019-05-16T11:04:28.458Z,18.73
2019-05-16T11:06:47.830Z,23.00
2019-05-16T11:09:17.354Z,21.70
2019-05-16T11:11:47.637Z,16.80
2019-05-16T11:14:17.254Z,21.40
2019-05-16T11:16:47.403Z,16.93
2019-05-16T11:19:21.240Z,16.80
2019-05-16T11:21:46.894Z,19.83
2019-05-16T11:24:15.181Z,19.20
2019-05-16T11:26:43.524Z,17.87
2019-05-16T11:29:11.788Z,24.03
2019-05-16T11:31:39.727Z,24.10
2019-05-16T11:34:08.354Z,21.80
2019-05-16T11:36:37.625Z,17.73
2019-05-16T11:39:08.588Z,23.57
2019-05-16T11:41:36.980Z,18.73
2019-05-16T11:44:06.594Z,18.23
2019-05-16T11:46:37.535Z,18.10
2019-05-16T11:49:04.678Z,17.33
2019-05-16T11:51:32.978Z,20.40
2019-05-16T11:54:01.273Z,19.90
2019-05-16T11:56:29.533Z,22.87
2019-05-16T11:58:57.398Z,20.47
2019-05-16T12:01:27.623Z,19.70
2019-05-16T12:03:57.525Z,18.27
2019-05-16T12:06:26.935Z,21.00
2019-05-16T12:08:55.301Z,21.80
2019-05-16T12:11:23.940Z,19.40
2019-05-16T12:13:52.451Z,15.43
2019-05-16T12:16:21.430Z,16.87
2019-05-16T12:18:50.288Z,19.77
2019-05-16T12:21:18.399Z,18.43
2019-05-16T12:23:47.279Z,20.50
2019-05-16T12:26:17.499Z,15.77
2019-05-16T12:28:45.788Z,16.80
2019-05-16T12:31:17.124Z,19.63
2019-05-16T12:33:47.624Z,20.87
2019-05-16T12:36:17.440Z,17.97
2019-05-16T12:38:46.756Z,17.07
2019-05-16T12:41:15.576Z,16.03
2019-05-16T12:43:49.707Z,14.53
2019-05-16T12:46:14.122Z,15.87
2019-05-16T12:48:42.744Z,15.67
2019-05-16T12:51:11.003Z,20.27
2019-05-16T12:53:39.360Z,20.57
2019-05-16T12:56:07.262Z,17.73
2019-05-16T12:58:39.144Z,17.40
2019-05-16T13:01:07.829Z,19.23
2019-05-16T13:03:37.856Z,17.23
2019-05-16T13:06:06.374Z,19.70
2019-05-16T13:08:34.263Z,18.57
2019-05-16T13:11:02.957Z,16.07
2019-05-16T13:13:31.550Z,21.03
2019-05-16T13:15:59.584Z,17.10
2019-05-16T13:18:28.114Z,16.20
2019-05-16T13:20:57.306Z,16.63
2019-05-16T13:23:26.947Z,15.73
2019-05-16T13:25:57.493Z,15.97
2019-05-16T13:28:26.255Z,19.10
2019-05-16T13:30:54.510Z,17.07
2019-05-16T13:33:23.132Z,18.40
2019-05-16T13:35:51.515Z,19.40
2019-05-16T13:38:19.800Z,18.10
2019-05-16T13:40:47.975Z,16.80
2019-05-16T13:43:17.469Z,18.23
2019-05-16T13:45:47.118Z,16.50
2019-05-16T13:48:17.116Z,20.03
2019-05-16T13:50:47.155Z,17.47
2019-05-16T13:53:16.376Z,19.53
2019-05-16T13:55:44.813Z,18.50
2019-05-16T13:58:13.526Z,17.37
2019-05-16T14:00:41.808Z,14.43
2019-05-16T14:03:10.503Z,14.57
2019-05-16T14:05:39.191Z,16.13
2019-05-16T14:08:07.497Z,15.77
2019-05-16T14:10:37.506Z,12.80
2019-05-16T14:13:07.224Z,19.27
2019-05-16T14:15:36.724Z,24.03
2019-05-16T14:18:07.398Z,17.97
2019-05-16T14:20:37.384Z,25.10
2019-05-16T14:23:08.025Z,20.20
2019-05-16T14:25:37.558Z,23.27
2019-05-16T14:28:07.425Z,16.03
2019-05-16T14:30:37.239Z,22.60
2019-05-16T14:33:12.963Z,18.03
2019-05-16T14:35:37.756Z,14.50
2019-05-16T14:38:05.773Z,16.30
2019-05-16T14:40:34.078Z,19.13
2019-05-16T14:43:02.786Z,16.30
2019-05-16T14:45:31.558Z,17.77
2019-05-16T14:48:00.155Z,16.83
2019-05-16T14:50:28.740Z,17.67
2019-05-16T14:52:57.327Z,16.40
2019-05-16T14:55:27.429Z,17.55
2019-05-16T14:57:56.727Z,14.70
2019-05-16T15:00:27.399Z,15.77
2019-05-16T15:02:56.600Z,24.40
2019-05-16T15:05:24.154Z,15.80
2019-05-16T15:07:52.471Z,18.37
2019-05-16T15:10:21.085Z,25.03
2019-05-16T15:12:49.503Z,17.27
2019-05-16T15:15:24.136Z,23.53
2019-05-16T15:17:50.988Z,24.77
2019-05-16T15:20:19.297Z,17.03
2019-05-16T15:22:47.493Z,15.87
2019-05-16T15:25:17.453Z,20.20
2019-05-16T15:27:47.792Z,17.13
2019-05-16T15:30:25.707Z,14.37
2019-05-16T15:32:53.962Z,21.90
2019-05-16T15:35:22.380Z,20.67
2019-05-16T15:37:50.663Z,21.53
2019-05-16T15:40:20.292Z,19.63
2019-05-16T15:42:48.536Z,15.77
2019-05-16T15:45:17.828Z,11.57
2019-05-16T15:47:46.315Z,20.00
2019-05-16T15:50:17.923Z,17.10
2019-05-16T15:52:44.658Z,21.80
2019-05-16T15:55:12.264Z,13.23
2019-05-16T15:57:40.409Z,18.63
2019-05-16T16:00:10.493Z,44.77
2019-05-16T16:02:39.514Z,40.67
2019-05-16T16:05:08.212Z,44.00
2019-05-16T16:07:37.963Z,40.13
2019-05-16T16:10:07.334Z,30.27
2019-05-16T16:12:37.540Z,41.53
2019-05-16T16:15:07.618Z,80.53
2019-05-16T16:17:38.215Z,79.00
2019-05-16T16:20:09.890Z,25.43
2019-05-16T16:22:37.781Z,21.13
2019-05-16T16:25:06.839Z,16.70
2019-05-16T16:27:35.277Z,17.47
2019-05-16T16:30:06.676Z,19.27
2019-05-16T16:32:34.660Z,16.27
2019-05-16T16:35:03.993Z,32.17
2019-05-16T16:37:31.579Z,20.27
2019-05-16T16:39:59.882Z,23.63
2019-05-16T16:42:28.515Z,28.33
2019-05-16T16:44:56.672Z,29.43
2019-05-16T16:47:26.902Z,17.93
2019-05-16T16:49:59.086Z,22.23
2019-05-16T16:52:27.351Z,21.43
2019-05-16T16:54:56.812Z,18.60
2019-05-16T16:57:27.104Z,13.93
2019-05-16T16:59:55.383Z,13.20
2019-05-16T17:02:23.564Z,15.77
2019-05-16T17:04:52.026Z,16.70
2019-05-16T17:07:20.328Z,22.63
2019-05-16T17:09:48.459Z,24.93
2019-05-16T17:12:17.005Z,22.93
2019-05-16T17:14:46.455Z,32.23
2019-05-16T17:17:17.414Z,31.40
2019-05-16T17:19:47.219Z,25.20
2019-05-16T17:22:20.200Z,19.63
2019-05-16T17:24:47.257Z,23.03
2019-05-16T17:27:15.938Z,33.67
2019-05-16T17:29:44.415Z,27.07
2019-05-16T17:32:12.360Z,23.67
2019-05-16T17:34:40.294Z,28.17
2019-05-16T17:37:09.695Z,28.77
2019-05-16T17:39:38.302Z,24.73
2019-05-16T17:42:07.645Z,24.23
2019-05-16T17:44:36.463Z,22.40
2019-05-16T17:47:07.055Z,24.40
2019-05-16T17:49:37.030Z,22.07
2019-05-16T17:52:06.951Z,20.57
2019-05-16T17:54:37.335Z,13.63
2019-05-16T17:57:07.495Z,13.97
2019-05-16T17:59:37.981Z,12.03
2019-05-16T18:02:06.498Z,15.20
2019-05-16T18:04:37.603Z,14.00
2019-05-16T18:07:07.193Z,13.97
2019-05-16T18:09:36.882Z,16.50
2019-05-16T18:12:06.714Z,13.63
2019-05-16T18:14:37.331Z,20.50
2019-05-16T18:17:07.633Z,16.53
2019-05-16T18:19:37.256Z,17.33
2019-05-16T18:22:06.677Z,16.17
2019-05-16T18:24:36.978Z,17.43
2019-05-16T18:27:06.726Z,22.43
2019-05-16T18:29:36.520Z,32.17
2019-05-16T18:32:07.038Z,28.30
2019-05-16T18:34:37.474Z,26.00
2019-05-16T18:37:06.825Z,27.70
2019-05-16T18:39:36.794Z,24.00
2019-05-16T18:42:05.085Z,19.43
2019-05-16T18:44:33.482Z,21.43
2019-05-16T18:47:07.425Z,22.27
2019-05-16T18:49:32.338Z,26.33
2019-05-16T18:52:01.109Z,24.23
2019-05-16T18:54:29.863Z,19.60
2019-05-16T18:56:58.415Z,18.87
2019-05-16T18:59:26.746Z,14.50
2019-05-16T19:01:55.439Z,12.73
2019-05-16T19:04:23.809Z,10.50
2019-05-16T19:06:51.735Z,10.80
2019-05-16T19:09:20.503Z,10.20
2019-05-16T19:11:49.175Z,10.87
2019-05-16T19:14:17.865Z,12.20
2019-05-16T19:16:49.029Z,12.17
2019-05-16T19:19:16.731Z,9.93
2019-05-16T19:21:45.124Z,12.53
2019-05-16T19:24:13.610Z,9.77
2019-05-16T19:26:42.235Z,11.93
2019-05-16T19:29:10.932Z,12.63
2019-05-16T19:31:39.316Z,13.63
2019-05-16T19:34:07.595Z,12.83
2019-05-16T19:36:36.118Z,15.10
2019-05-16T19:39:07.085Z,14.43
2019-05-16T19:41:38.625Z,14.27
2019-05-16T19:44:06.768Z,12.17
2019-05-16T19:46:34.822Z,16.47
2019-05-16T19:49:03.815Z,15.85
2019-05-16T19:51:32.527Z,13.85
2019-05-16T19:54:00.704Z,13.60
2019-05-16T19:56:29.529Z,15.00
2019-05-16T19:58:57.892Z,15.37
2019-05-16T20:01:27.418Z,16.23
2019-05-16T20:03:56.466Z,16.83
2019-05-16T20:06:27.325Z,17.90
2019-05-16T20:08:54.994Z,20.53
2019-05-16T20:11:23.584Z,20.57
2019-05-16T20:13:52.328Z,19.93
2019-05-16T20:16:21.073Z,19.17
2019-05-16T20:18:49.689Z,29.53
2019-05-16T20:21:18.559Z,25.10
2019-05-16T20:23:48.291Z,27.60
2019-05-16T20:26:16.980Z,26.90
2019-05-16T20:28:44.461Z,20.33
2019-05-16T20:31:12.874Z,19.53
2019-05-16T20:33:40.689Z,20.13
2019-05-16T20:36:09.475Z,22.50
2019-05-16T20:38:38.300Z,19.70
2019-05-16T20:41:07.757Z,23.27
2019-05-16T20:43:36.887Z,23.03
2019-05-16T20:46:07.249Z,20.43
2019-05-16T20:48:36.893Z,21.47
2019-05-16T20:51:07.322Z,21.23
2019-05-16T20:53:37.345Z,19.17
2019-05-16T20:56:06.584Z,23.20
2019-05-16T20:58:34.980Z,20.37
2019-05-16T21:01:03.203Z,24.37
2019-05-16T21:03:31.543Z,21.77
2019-05-16T21:05:59.826Z,21.17
2019-05-16T21:08:27.788Z,19.93
2019-05-16T21:10:57.048Z,22.87
2019-05-16T21:13:25.730Z,21.00
2019-05-16T21:15:54.078Z,25.57
2019-05-16T21:18:22.836Z,23.90
2019-05-16T21:20:51.160Z,24.63
2019-05-16T21:23:19.826Z,20.47
2019-05-16T21:25:48.014Z,19.83
2019-05-16T21:28:19.484Z,24.37
2019-05-16T21:30:47.353Z,20.93
2019-05-16T21:33:18.455Z,20.93
2019-05-16T21:35:46.991Z,20.80
2019-05-16T21:38:16.568Z,28.30
2019-05-16T21:40:45.005Z,24.30
2019-05-16T21:43:13.252Z,23.23
2019-05-16T21:45:41.443Z,26.03
2019-05-16T21:48:10.025Z,26.57
2019-05-16T21:50:38.733Z,24.83
2019-05-16T21:53:07.458Z,23.97
2019-05-16T21:55:36.862Z,28.23
2019-05-16T21:58:07.337Z,25.27
2019-05-16T22:00:42.378Z,25.43
2019-05-16T22:03:10.874Z,27.73
2019-05-16T22:05:39.520Z,24.90
2019-05-16T22:08:07.850Z,25.47
2019-05-16T22:10:37.277Z,24.80
2019-05-16T22:13:07.815Z,27.60
2019-05-16T22:15:36.773Z,26.57
2019-05-16T22:18:07.259Z,30.60
2019-05-16T22:20:35.622Z,29.00
2019-05-16T22:23:06.790Z,29.47
2019-05-16T22:25:34.638Z,28.93
2019-05-16T22:28:03.357Z,28.03
2019-05-16T22:30:31.525Z,27.17
2019-05-16T22:32:59.989Z,28.97
2019-05-16T22:35:28.192Z,28.50
2019-05-16T22:37:59.240Z,29.43
2019-05-16T22:40:33.589Z,27.43
2019-05-16T22:43:02.669Z,31.47
2019-05-16T22:45:30.443Z,26.33
2019-05-16T22:47:58.722Z,28.57
2019-05-16T22:50:27.194Z,26.77
2019-05-16T22:52:56.945Z,26.47
2019-05-16T22:55:26.473Z,26.27
2019-05-16T22:57:56.512Z,27.63
2019-05-16T23:00:27.449Z,31.23
2019-05-16T23:02:56.645Z,32.97
2019-05-16T23:05:27.376Z,34.23
2019-05-16T23:08:05.590Z,30.30
2019-05-16T23:10:28.089Z,32.73
2019-05-16T23:12:57.238Z,31.70
2019-05-16T23:15:26.539Z,30.17
2019-05-16T23:17:57.178Z,33.90
2019-05-16T23:20:27.536Z,33.90
2019-05-16T23:22:56.361Z,33.90
2019-05-16T23:25:24.681Z,32.07
2019-05-16T23:27:53.006Z,32.33
2019-05-16T23:30:21.278Z,33.80
2019-05-16T23:32:49.388Z,33.20
2019-05-16T23:35:17.468Z,31.53
2019-05-16T23:37:46.399Z,30.93
2019-05-16T23:40:14.438Z,30.83
2019-05-16T23:42:43.089Z,34.63
2019-05-16T23:45:11.619Z,33.43
2019-05-16T23:47:40.090Z,34.07
2019-05-16T23:50:08.797Z,35.40
2019-05-16T23:52:37.144Z,34.37
2019-05-16T23:55:07.873Z,30.53
2019-05-16T23:57:37.319Z,37.97
